^^
Meteo Knjazevac Station Historical Data
Daily Summary for May 26, 2021 Units:  Metric    English   Both
Daily Weekly Monthly Yearly Custom
  High: Low: Average:
Temperature: 23.2 °C 17.9 °C 20 °C
Dew Point: 19.1 °C 16.4 °C 17.4 °C
Humidity: 93% 78% 86%
Wind Speed: 3.2km/h 0km/h 1.6km/h
Wind Gust: 9.7km/h - -
Wind- - West
Pressure: 1017.2 hPa 1016.1 hPa -
Precipitation: 0 mm    
Historical Graphs
 
 
Tabular Data for May 26, 2021
Time Temperature Dew Point Pressure Wind Wind Speed Wind Gust Humidity Rainfall Rate (Hourly) solar Conditions
00:00 23.2 °C 19.1 °C 1016.1 hPa West 1.6 km/h 6.4 km/h 78% 0 mm 0 W/m2
00:10 23 °C 18.9 °C 1016.5 hPa WNW 3.2 km/h 3.2 km/h 78% 0 mm 0 W/m2
00:20 22.9 °C 18.8 °C 1016.5 hPa Calm   4.8 km/h 78% 0 mm 0 W/m2
00:30 22.7 °C 18.9 °C 1016.1 hPa WSW 1.6 km/h 3.2 km/h 79% 0 mm 0 W/m2
00:40 22.5 °C 18.7 °C 1016.5 hPa Calm   3.2 km/h 79% 0 mm 0 W/m2
00:50 22.3 °C 18.7 °C 1016.5 hPa WSW 1.6 km/h 4.8 km/h 80% 0 mm 0 W/m2
01:00 22.1 °C 18.7 °C 1016.1 hPa NNW 1.6 km/h 3.2 km/h 81% 0 mm 0 W/m2
01:10 21.8 °C 18.2 °C 1016.1 hPa Calm   3.2 km/h 80% 0 mm 0 W/m2
01:20 21.7 °C 18.1 °C 1016.1 hPa Calm   3.2 km/h 80% 0 mm 0 W/m2
01:30 21.5 °C 18.1 °C 1016.1 hPa NE 1.6 km/h 3.2 km/h 81% 0 mm 0 W/m2
01:40 21.4 °C 18 °C 1016.1 hPa SSW 1.6 km/h 4.8 km/h 81% 0 mm 0 W/m2
01:50 21.2 °C 17.8 °C 1016.1 hPa Calm   3.2 km/h 81% 0 mm 0 W/m2
02:00 21.1 °C 18.1 °C 1016.5 hPa Calm   3.2 km/h 83% 0 mm 0 W/m2
02:10 20.7 °C 17.9 °C 1016.5 hPa WNW 3.2 km/h 4.8 km/h 84% 0 mm 0 W/m2
02:20 20.5 °C 17.7 °C 1016.8 hPa WSW 1.6 km/h 4.8 km/h 84% 0 mm 0 W/m2
02:30 20.1 °C 17.6 °C 1016.8 hPa SW 3.2 km/h 4.8 km/h 85% 0 mm 0 W/m2
02:40 19.8 °C 17.4 °C 1016.8 hPa WSW 3.2 km/h 8 km/h 86% 0 mm 0 W/m2
02:50 19.6 °C 17.2 °C 1016.8 hPa West 3.2 km/h 8 km/h 86% 0 mm 0 W/m2
03:00 19.5 °C 17.1 °C 1016.8 hPa West 3.2 km/h 8 km/h 86% 0 mm 0 W/m2
03:10 19.4 °C 17 °C 1016.8 hPa WSW 1.6 km/h 4.8 km/h 86% 0 mm 0 W/m2
03:20 19.4 °C 17 °C 1016.8 hPa West 1.6 km/h 4.8 km/h 86% 0 mm 0 W/m2
03:30 19.4 °C 17 °C 1016.8 hPa Calm   3.2 km/h 86% 0 mm 0 W/m2
03:40 19.3 °C 17.3 °C 1016.8 hPa Calm     88% 0 mm 0 W/m2
03:50 19.3 °C 17.3 °C 1016.5 hPa Calm   3.2 km/h 88% 0 mm 0 W/m2
04:00 19.2 °C 17.2 °C 1016.5 hPa NNW 1.6 km/h 4.8 km/h 88% 0 mm 0 W/m2
04:10 19.1 °C 17.1 °C 1016.8 hPa NW 1.6 km/h 4.8 km/h 88% 0 mm 0 W/m2
04:20 18.9 °C 17.1 °C 1016.8 hPa Calm   3.2 km/h 89% 0 mm 0 W/m2
04:30 18.8 °C 16.9 °C 1016.8 hPa WNW 3.2 km/h 8 km/h 89% 0 mm 0 W/m2
04:40 18.4 °C 16.6 °C 1016.8 hPa WSW 3.2 km/h 6.4 km/h 89% 0 mm 0 W/m2
04:50 18.2 °C 16.6 °C 1016.8 hPa WSW 1.6 km/h 6.4 km/h 90% 0 mm 0 W/m2
05:00 18.1 °C 16.4 °C 1016.8 hPa WNW 1.6 km/h 6.4 km/h 90% 0 mm 5 W/m2
05:10 18 °C 16.5 °C 1016.8 hPa Calm   8 km/h 91% 0 mm 12 W/m2
05:20 18 °C 16.5 °C 1016.8 hPa WNW 3.2 km/h 6.4 km/h 91% 0 mm 22 W/m2
05:30 18 °C 16.5 °C 1016.8 hPa WNW 1.6 km/h 4.8 km/h 91% 0 mm 33 W/m2
05:40 17.9 °C 16.4 °C 1016.8 hPa WNW 3.2 km/h 9.7 km/h 91% 0 mm 43 W/m2
05:50 17.9 °C 16.4 °C 1016.8 hPa WSW 1.6 km/h 8 km/h 91% 0 mm 64 W/m2
06:00 17.9 °C 16.8 °C 1016.8 hPa West 1.6 km/h 4.8 km/h 93% 0 mm 88 W/m2
06:10 18.1 °C 16.9 °C 1016.8 hPa Calm   3.2 km/h 93% 0 mm 110 W/m2
06:20 18.2 °C 17.1 °C 1017.2 hPa WNW 3.2 km/h 4.8 km/h 93% 0 mm 132 W/m2
Knjazevac, Serbia
Compliments of Weather Underground - 2 mb